sensor_id;sensor_type;location;lat;lon;timestamp;P1;durP1;ratioP1;P2;durP2;ratioP2
11988;SDS011;6054;50.966;7.094;2022-08-19T03:08:00;12.45;;;11.35;;
11988;SDS011;6054;50.966;7.094;2022-08-19T03:10:28;11.82;;;10.82;;
11988;SDS011;6054;50.966;7.094;2022-08-19T03:12:55;12.25;;;11.15;;
11988;SDS011;6054;50.966;7.094;2022-08-19T03:15:22;12.15;;;10.95;;
11988;SDS011;6054;50.966;7.094;2022-08-19T03:17:48;12.23;;;10.95;;
11988;SDS011;6054;50.966;7.094;2022-08-19T03:20:15;13.02;;;11.77;;
11988;SDS011;6054;50.966;7.094;2022-08-19T03:22:42;12.90;;;11.80;;
11988;SDS011;6054;50.966;7.094;2022-08-19T03:25:10;11.98;;;10.88;;
11988;SDS011;6054;50.966;7.094;2022-08-19T03:27:37;13.20;;;12.05;;
11988;SDS011;6054;50.966;7.094;2022-08-19T03:30:05;12.85;;;11.75;;
11988;SDS011;6054;50.966;7.094;2022-08-19T03:32:32;13.23;;;12.13;;
11988;SDS011;6054;50.966;7.094;2022-08-19T03:34:59;14.45;;;12.38;;
11988;SDS011;6054;50.966;7.094;2022-08-19T03:37:26;12.52;;;11.43;;
11988;SDS011;6054;50.966;7.094;2022-08-19T03:39:53;12.55;;;11.40;;
11988;SDS011;6054;50.966;7.094;2022-08-19T03:42:21;11.95;;;10.85;;
11988;SDS011;6054;50.966;7.094;2022-08-19T03:44:48;12.80;;;11.80;;
11988;SDS011;6054;50.966;7.094;2022-08-19T03:47:15;12.38;;;11.35;;
11988;SDS011;6054;50.966;7.094;2022-08-19T03:49:42;12.75;;;11.65;;
11988;SDS011;6054;50.966;7.094;2022-08-19T03:52:09;12.88;;;11.68;;
11988;SDS011;6054;50.966;7.094;2022-08-19T03:54:36;13.25;;;12.07;;
11988;SDS011;6054;50.966;7.094;2022-08-19T03:57:03;13.32;;;12.02;;
11988;SDS011;6054;50.966;7.094;2022-08-19T03:59:32;13.68;;;12.27;;
11988;SDS011;6054;50.966;7.094;2022-08-19T04:02:01;12.15;;;11.05;;
11988;SDS011;6054;50.966;7.094;2022-08-19T04:04:34;13.15;;;12.05;;
11988;SDS011;6054;50.966;7.094;2022-08-19T04:07:02;13.10;;;11.90;;
11988;SDS011;6054;50.966;7.094;2022-08-19T04:09:29;12.05;;;10.95;;
11988;SDS011;6054;50.966;7.094;2022-08-19T04:11:56;12.48;;;11.35;;
11988;SDS011;6054;50.966;7.094;2022-08-19T04:14:24;13.48;;;12.27;;
11988;SDS011;6054;50.966;7.094;2022-08-19T04:16:55;12.30;;;11.30;;
11988;SDS011;6054;50.966;7.094;2022-08-19T04:19:23;12.07;;;10.95;;
11988;SDS011;6054;50.966;7.094;2022-08-19T04:21:51;12.05;;;11.05;;
11988;SDS011;6054;50.966;7.094;2022-08-19T04:24:20;12.50;;;11.40;;
11988;SDS011;6054;50.966;7.094;2022-08-19T04:26:47;12.25;;;11.10;;
11988;SDS011;6054;50.966;7.094;2022-08-19T04:29:15;13.00;;;11.90;;
11988;SDS011;6054;50.966;7.094;2022-08-19T04:31:44;12.18;;;11.15;;
11988;SDS011;6054;50.966;7.094;2022-08-19T04:34:13;13.02;;;11.80;;
11988;SDS011;6054;50.966;7.094;2022-08-19T04:36:43;13.40;;;12.27;;
11988;SDS011;6054;50.966;7.094;2022-08-19T04:39:11;12.27;;;11.05;;
11988;SDS011;6054;50.966;7.094;2022-08-19T04:41:41;12.88;;;11.63;;
11988;SDS011;6054;50.966;7.094;2022-08-19T04:44:25;11.85;;;10.85;;
11988;SDS011;6054;50.966;7.094;2022-08-19T04:46:55;13.27;;;11.98;;
11988;SDS011;6054;50.966;7.094;2022-08-19T04:49:24;12.98;;;11.77;;
11988;SDS011;6054;50.966;7.094;2022-08-19T04:51:52;11.27;;;10.30;;
11988;SDS011;6054;50.966;7.094;2022-08-19T04:54:20;11.15;;;10.23;;
11988;SDS011;6054;50.966;7.094;2022-08-19T04:56:50;11.98;;;10.98;;
11988;SDS011;6054;50.966;7.094;2022-08-19T04:59:18;12.27;;;11.27;;
11988;SDS011;6054;50.966;7.094;2022-08-19T05:01:45;12.40;;;11.32;;
11988;SDS011;6054;50.966;7.094;2022-08-19T05:04:15;12.40;;;11.20;;
11988;SDS011;6054;50.966;7.094;2022-08-19T05:06:45;12.73;;;11.63;;
11988;SDS011;6054;50.966;7.094;2022-08-19T05:09:13;12.55;;;11.45;;
11988;SDS011;6054;50.966;7.094;2022-08-19T05:11:42;11.82;;;10.73;;
11988;SDS011;6054;50.966;7.094;2022-08-19T05:14:10;12.27;;;11.07;;
11988;SDS011;6054;50.966;7.094;2022-08-19T05:16:39;11.75;;;10.75;;
11988;SDS011;6054;50.966;7.094;2022-08-19T05:19:06;12.30;;;11.15;;
11988;SDS011;6054;50.966;7.094;2022-08-19T05:21:52;12.30;;;11.13;;
11988;SDS011;6054;50.966;7.094;2022-08-19T05:24:36;12.77;;;11.50;;
11988;SDS011;6054;50.966;7.094;2022-08-19T05:27:04;12.55;;;11.32;;
11988;SDS011;6054;50.966;7.094;2022-08-19T05:29:32;13.32;;;12.02;;
11988;SDS011;6054;50.966;7.094;2022-08-19T05:32:00;12.50;;;11.48;;
11988;SDS011;6054;50.966;7.094;2022-08-19T05:34:29;12.65;;;11.50;;
11988;SDS011;6054;50.966;7.094;2022-08-19T05:36:59;13.13;;;11.93;;
11988;SDS011;6054;50.966;7.094;2022-08-19T05:39:29;13.27;;;12.02;;
11988;SDS011;6054;50.966;7.094;2022-08-19T05:41:58;13.00;;;11.80;;
11988;SDS011;6054;50.966;7.094;2022-08-19T05:44:30;12.63;;;11.57;;
11988;SDS011;6054;50.966;7.094;2022-08-19T05:46:58;13.00;;;11.80;;
11988;SDS011;6054;50.966;7.094;2022-08-19T05:49:27;13.00;;;11.90;;
11988;SDS011;6054;50.966;7.094;2022-08-19T05:51:54;12.60;;;11.45;;
11988;SDS011;6054;50.966;7.094;2022-08-19T05:54:23;13.40;;;12.02;;
11988;SDS011;6054;50.966;7.094;2022-08-19T05:56:51;13.27;;;12.18;;
11988;SDS011;6054;50.966;7.094;2022-08-19T05:59:19;13.30;;;12.00;;
11988;SDS011;6054;50.966;7.094;2022-08-19T06:01:48;13.43;;;11.93;;
11988;SDS011;6054;50.966;7.094;2022-08-19T06:04:16;12.32;;;11.18;;
11988;SDS011;6054;50.966;7.094;2022-08-19T06:06:44;12.70;;;11.10;;
11988;SDS011;6054;50.966;7.094;2022-08-19T06:09:12;12.82;;;11.60;;
11988;SDS011;6054;50.966;7.094;2022-08-19T06:11:41;11.80;;;10.80;;
11988;SDS011;6054;50.966;7.094;2022-08-19T06:14:12;13.82;;;11.90;;
11988;SDS011;6054;50.966;7.094;2022-08-19T06:16:41;14.32;;;13.02;;
11988;SDS011;6054;50.966;7.094;2022-08-19T06:19:10;16.52;;;14.80;;
11988;SDS011;6054;50.966;7.094;2022-08-19T06:21:38;37.35;;;13.88;;
11988;SDS011;6054;50.966;7.094;2022-08-19T06:24:08;17.50;;;13.57;;
11988;SDS011;6054;50.966;7.094;2022-08-19T06:26:37;15.75;;;14.00;;
11988;SDS011;6054;50.966;7.094;2022-08-19T06:29:07;16.00;;;14.50;;
11988;SDS011;6054;50.966;7.094;2022-08-19T06:31:35;18.30;;;16.45;;
11988;SDS011;6054;50.966;7.094;2022-08-19T06:34:04;16.48;;;15.00;;
11988;SDS011;6054;50.966;7.094;2022-08-19T06:36:32;18.83;;;16.85;;
11988;SDS011;6054;50.966;7.094;2022-08-19T06:39:02;21.17;;;18.85;;
11988;SDS011;6054;50.966;7.094;2022-08-19T06:41:30;24.73;;;18.65;;
11988;SDS011;6054;50.966;7.094;2022-08-19T06:43:57;23.00;;;18.85;;
11988;SDS011;6054;50.966;7.094;2022-08-19T06:46:25;26.85;;;24.15;;
11988;SDS011;6054;50.966;7.094;2022-08-19T06:48:53;24.33;;;21.38;;
11988;SDS011;6054;50.966;7.094;2022-08-19T06:51:21;24.20;;;21.83;;
11988;SDS011;6054;50.966;7.094;2022-08-19T06:53:49;26.52;;;23.27;;
11988;SDS011;6054;50.966;7.094;2022-08-19T06:56:19;25.98;;;23.23;;
11988;SDS011;6054;50.966;7.094;2022-08-19T06:58:47;25.50;;;22.75;;
11988;SDS011;6054;50.966;7.094;2022-08-19T07:01:16;26.13;;;23.33;;
11988;SDS011;6054;50.966;7.094;2022-08-19T07:03:44;33.83;;;26.58;;
11988;SDS011;6054;50.966;7.094;2022-08-19T07:06:13;77.35;;;28.55;;
11988;SDS011;6054;50.966;7.094;2022-08-19T07:08:42;31.98;;;28.55;;
11988;SDS011;6054;50.966;7.094;2022-08-19T07:11:10;34.60;;;29.05;;
11988;SDS011;6054;50.966;7.094;2022-08-19T07:13:39;33.45;;;29.05;;
11988;SDS011;6054;50.966;7.094;2022-08-19T07:16:09;31.27;;;27.90;;
11988;SDS011;6054;50.966;7.094;2022-08-19T07:18:38;32.60;;;28.00;;
11988;SDS011;6054;50.966;7.094;2022-08-19T07:21:08;31.17;;;26.70;;
11988;SDS011;6054;50.966;7.094;2022-08-19T07:23:36;33.20;;;28.40;;
11988;SDS011;6054;50.966;7.094;2022-08-19T07:26:04;33.75;;;29.55;;
11988;SDS011;6054;50.966;7.094;2022-08-19T07:28:32;30.83;;;27.55;;
11988;SDS011;6054;50.966;7.094;2022-08-19T07:30:58;30.48;;;26.95;;
11988;SDS011;6054;50.966;7.094;2022-08-19T07:33:28;36.55;;;28.23;;
11988;SDS011;6054;50.966;7.094;2022-08-19T07:35:57;29.15;;;26.02;;
11988;SDS011;6054;50.966;7.094;2022-08-19T07:38:25;28.73;;;25.70;;
11988;SDS011;6054;50.966;7.094;2022-08-19T07:40:52;37.00;;;25.33;;
11988;SDS011;6054;50.966;7.094;2022-08-19T07:43:19;26.42;;;23.58;;
11988;SDS011;6054;50.966;7.094;2022-08-19T07:45:50;33.53;;;24.52;;
11988;SDS011;6054;50.966;7.094;2022-08-19T07:48:17;27.48;;;24.27;;
11988;SDS011;6054;50.966;7.094;2022-08-19T07:50:44;24.65;;;22.05;;
11988;SDS011;6054;50.966;7.094;2022-08-19T07:53:11;25.83;;;22.88;;
11988;SDS011;6054;50.966;7.094;2022-08-19T07:55:39;27.02;;;24.13;;
11988;SDS011;6054;50.966;7.094;2022-08-19T07:58:06;27.42;;;21.52;;
11988;SDS011;6054;50.966;7.094;2022-08-19T08:00:33;26.02;;;22.48;;
11988;SDS011;6054;50.966;7.094;2022-08-19T08:03:00;23.50;;;19.98;;
11988;SDS011;6054;50.966;7.094;2022-08-19T08:05:27;26.98;;;21.98;;
11988;SDS011;6054;50.966;7.094;2022-08-19T08:08:12;25.25;;;22.55;;
11988;SDS011;6054;50.966;7.094;2022-08-19T08:10:57;26.48;;;22.77;;
11988;SDS011;6054;50.966;7.094;2022-08-19T08:13:24;23.75;;;21.40;;
11988;SDS011;6054;50.966;7.094;2022-08-19T08:15:51;26.02;;;20.73;;
11988;SDS011;6054;50.966;7.094;2022-08-19T08:18:18;24.35;;;21.73;;
11988;SDS011;6054;50.966;7.094;2022-08-19T08:20:45;24.88;;;22.10;;
11988;SDS011;6054;50.966;7.094;2022-08-19T08:23:12;25.55;;;22.17;;
11988;SDS011;6054;50.966;7.094;2022-08-19T08:25:50;25.42;;;20.98;;
11988;SDS011;6054;50.966;7.094;2022-08-19T08:28:19;23.67;;;20.88;;
11988;SDS011;6054;50.966;7.094;2022-08-19T08:30:46;22.42;;;20.23;;
11988;SDS011;6054;50.966;7.094;2022-08-19T08:33:17;22.85;;;20.02;;
11988;SDS011;6054;50.966;7.094;2022-08-19T08:35:46;23.38;;;18.70;;
11988;SDS011;6054;50.966;7.094;2022-08-19T08:38:14;22.48;;;18.15;;
11988;SDS011;6054;50.966;7.094;2022-08-19T08:40:44;21.30;;;18.25;;
11988;SDS011;6054;50.966;7.094;2022-08-19T08:43:18;22.33;;;18.10;;
11988;SDS011;6054;50.966;7.094;2022-08-19T08:45:52;23.95;;;18.83;;
11988;SDS011;6054;50.966;7.094;2022-08-19T08:48:28;22.25;;;18.80;;
11988;SDS011;6054;50.966;7.094;2022-08-19T08:51:02;25.33;;;19.13;;
11988;SDS011;6054;50.966;7.094;2022-08-19T08:53:32;23.27;;;19.25;;
11988;SDS011;6054;50.966;7.094;2022-08-19T08:56:02;23.65;;;20.08;;
11988;SDS011;6054;50.966;7.094;2022-08-19T08:58:36;25.63;;;21.92;;
11988;SDS011;6054;50.966;7.094;2022-08-19T09:01:10;22.15;;;18.60;;
11988;SDS011;6054;50.966;7.094;2022-08-19T09:03:39;22.35;;;19.23;;
11988;SDS011;6054;50.966;7.094;2022-08-19T09:06:10;24.48;;;21.00;;
11988;SDS011;6054;50.966;7.094;2022-08-19T09:08:44;23.13;;;20.30;;
11988;SDS011;6054;50.966;7.094;2022-08-19T09:11:15;25.63;;;22.13;;
11988;SDS011;6054;50.966;7.094;2022-08-19T09:13:52;24.73;;;22.20;;
11988;SDS011;6054;50.966;7.094;2022-08-19T09:16:28;29.80;;;24.77;;
11988;SDS011;6054;50.966;7.094;2022-08-19T09:18:57;28.10;;;25.00;;
11988;SDS011;6054;50.966;7.094;2022-08-19T09:21:27;30.83;;;24.95;;
11988;SDS011;6054;50.966;7.094;2022-08-19T09:23:54;35.10;;;28.88;;
11988;SDS011;6054;50.966;7.094;2022-08-19T09:26:22;30.92;;;27.60;;
11988;SDS011;6054;50.966;7.094;2022-08-19T09:28:51;33.50;;;26.83;;
11988;SDS011;6054;50.966;7.094;2022-08-19T09:31:20;28.85;;;25.70;;
11988;SDS011;6054;50.966;7.094;2022-08-19T09:33:49;31.95;;;26.48;;
11988;SDS011;6054;50.966;7.094;2022-08-19T09:36:17;30.02;;;26.52;;
11988;SDS011;6054;50.966;7.094;2022-08-19T09:38:47;29.65;;;24.52;;
11988;SDS011;6054;50.966;7.094;2022-08-19T09:41:17;28.40;;;25.30;;
11988;SDS011;6054;50.966;7.094;2022-08-19T09:43:45;33.15;;;27.60;;
11988;SDS011;6054;50.966;7.094;2022-08-19T09:46:15;33.47;;;27.38;;
11988;SDS011;6054;50.966;7.094;2022-08-19T09:48:43;32.05;;;28.23;;
11988;SDS011;6054;50.966;7.094;2022-08-19T09:51:13;32.83;;;29.20;;
11988;SDS011;6054;50.966;7.094;2022-08-19T09:53:41;36.50;;;28.33;;
11988;SDS011;6054;50.966;7.094;2022-08-19T09:56:09;32.97;;;27.92;;
11988;SDS011;6054;50.966;7.094;2022-08-19T09:58:37;29.35;;;26.20;;
11988;SDS011;6054;50.966;7.094;2022-08-19T10:01:05;35.15;;;29.10;;
11988;SDS011;6054;50.966;7.094;2022-08-19T10:03:34;36.05;;;27.17;;
11988;SDS011;6054;50.966;7.094;2022-08-19T10:06:03;33.55;;;26.25;;
11988;SDS011;6054;50.966;7.094;2022-08-19T10:08:31;35.58;;;29.63;;
11988;SDS011;6054;50.966;7.094;2022-08-19T10:10:59;31.55;;;26.23;;
11988;SDS011;6054;50.966;7.094;2022-08-19T10:13:28;32.13;;;25.73;;
11988;SDS011;6054;50.966;7.094;2022-08-19T10:16:01;31.88;;;24.38;;
11988;SDS011;6054;50.966;7.094;2022-08-19T10:18:29;27.30;;;23.67;;
11988;SDS011;6054;50.966;7.094;2022-08-19T10:21:04;24.48;;;21.77;;
11988;SDS011;6054;50.966;7.094;2022-08-19T10:23:35;25.90;;;23.15;;
11988;SDS011;6054;50.966;7.094;2022-08-19T10:26:03;22.83;;;19.70;;
11988;SDS011;6054;50.966;7.094;2022-08-19T10:28:32;23.58;;;21.17;;
11988;SDS011;6054;50.966;7.094;2022-08-19T10:31:03;22.75;;;18.13;;
11988;SDS011;6054;50.966;7.094;2022-08-19T10:33:31;18.50;;;16.30;;
11988;SDS011;6054;50.966;7.094;2022-08-19T10:35:59;19.50;;;17.35;;
11988;SDS011;6054;50.966;7.094;2022-08-19T10:38:27;16.27;;;14.60;;
11988;SDS011;6054;50.966;7.094;2022-08-19T10:40:54;18.58;;;15.98;;
11988;SDS011;6054;50.966;7.094;2022-08-19T10:43:21;22.27;;;15.82;;
11988;SDS011;6054;50.966;7.094;2022-08-19T10:45:51;16.60;;;14.07;;
11988;SDS011;6054;50.966;7.094;2022-08-19T10:48:20;21.35;;;17.42;;
11988;SDS011;6054;50.966;7.094;2022-08-19T10:50:47;18.58;;;14.93;;
11988;SDS011;6054;50.966;7.094;2022-08-19T10:53:33;16.60;;;14.88;;
11988;SDS011;6054;50.966;7.094;2022-08-19T10:56:00;18.05;;;15.32;;
11988;SDS011;6054;50.966;7.094;2022-08-19T10:58:46;16.15;;;13.60;;
11988;SDS011;6054;50.966;7.094;2022-08-19T11:01:14;18.73;;;14.32;;
11988;SDS011;6054;50.966;7.094;2022-08-19T11:03:41;17.70;;;15.85;;
11988;SDS011;6054;50.966;7.094;2022-08-19T11:06:08;16.40;;;14.63;;
11988;SDS011;6054;50.966;7.094;2022-08-19T11:08:36;16.15;;;14.55;;
11988;SDS011;6054;50.966;7.094;2022-08-19T11:11:04;17.88;;;14.82;;
11988;SDS011;6054;50.966;7.094;2022-08-19T11:13:33;16.08;;;14.48;;
11988;SDS011;6054;50.966;7.094;2022-08-19T11:16:06;16.35;;;14.57;;
11988;SDS011;6054;50.966;7.094;2022-08-19T11:18:36;16.52;;;14.93;;
11988;SDS011;6054;50.966;7.094;2022-08-19T11:21:07;16.60;;;14.07;;
11988;SDS011;6054;50.966;7.094;2022-08-19T11:23:36;16.02;;;13.30;;
11988;SDS011;6054;50.966;7.094;2022-08-19T11:26:06;15.15;;;12.95;;
11988;SDS011;6054;50.966;7.094;2022-08-19T11:28:33;15.02;;;13.52;;
11988;SDS011;6054;50.966;7.094;2022-08-19T11:31:00;14.63;;;12.45;;
11988;SDS011;6054;50.966;7.094;2022-08-19T11:33:28;13.73;;;11.73;;
11988;SDS011;6054;50.966;7.094;2022-08-19T11:35:56;13.90;;;12.40;;
11988;SDS011;6054;50.966;7.094;2022-08-19T11:38:24;14.90;;;10.25;;
11988;SDS011;6054;50.966;7.094;2022-08-19T11:40:56;17.13;;;12.80;;
11988;SDS011;6054;50.966;7.094;2022-08-19T11:43:23;14.02;;;12.23;;
11988;SDS011;6054;50.966;7.094;2022-08-19T11:45:51;14.85;;;12.57;;
11988;SDS011;6054;50.966;7.094;2022-08-19T11:48:18;15.55;;;13.05;;
11988;SDS011;6054;50.966;7.094;2022-08-19T11:50:47;19.25;;;11.65;;
11988;SDS011;6054;50.966;7.094;2022-08-19T11:53:14;13.88;;;12.43;;
11988;SDS011;6054;50.966;7.094;2022-08-19T11:55:41;15.25;;;13.75;;
11988;SDS011;6054;50.966;7.094;2022-08-19T11:58:11;14.50;;;12.85;;
11988;SDS011;6054;50.966;7.094;2022-08-19T12:00:38;12.77;;;11.15;;
11988;SDS011;6054;50.966;7.094;2022-08-19T12:03:05;14.07;;;12.60;;
11988;SDS011;6054;50.966;7.094;2022-08-19T12:05:32;13.13;;;11.82;;
11988;SDS011;6054;50.966;7.094;2022-08-19T12:07:59;17.70;;;12.68;;
11988;SDS011;6054;50.966;7.094;2022-08-19T12:10:26;15.85;;;14.13;;
11988;SDS011;6054;50.966;7.094;2022-08-19T12:12:53;15.55;;;12.43;;
11988;SDS011;6054;50.966;7.094;2022-08-19T12:15:21;13.48;;;12.18;;
11988;SDS011;6054;50.966;7.094;2022-08-19T12:17:48;13.38;;;12.02;;
11988;SDS011;6054;50.966;7.094;2022-08-19T12:20:15;10.27;;;9.48;;
11988;SDS011;6054;50.966;7.094;2022-08-19T12:22:43;12.93;;;11.63;;
11988;SDS011;6054;50.966;7.094;2022-08-19T12:25:10;12.48;;;11.20;;
11988;SDS011;6054;50.966;7.094;2022-08-19T12:27:38;13.80;;;11.95;;
11988;SDS011;6054;50.966;7.094;2022-08-19T12:30:05;11.32;;;10.32;;
11988;SDS011;6054;50.966;7.094;2022-08-19T12:32:35;11.85;;;10.65;;
11988;SDS011;6054;50.966;7.094;2022-08-19T12:35:02;11.35;;;10.25;;
11988;SDS011;6054;50.966;7.094;2022-08-19T12:37:30;12.25;;;11.05;;
11988;SDS011;6054;50.966;7.094;2022-08-19T12:39:57;11.23;;;10.23;;
11988;SDS011;6054;50.966;7.094;2022-08-19T12:42:25;11.48;;;9.45;;
11988;SDS011;6054;50.966;7.094;2022-08-19T12:44:51;11.20;;;10.20;;
11988;SDS011;6054;50.966;7.094;2022-08-19T12:47:18;8.88;;;8.18;;
11988;SDS011;6054;50.966;7.094;2022-08-19T12:49:47;10.50;;;9.57;;
11988;SDS011;6054;50.966;7.094;2022-08-19T12:52:15;10.90;;;10.00;;
11988;SDS011;6054;50.966;7.094;2022-08-19T12:54:46;11.82;;;10.65;;
11988;SDS011;6054;50.966;7.094;2022-08-19T12:57:13;9.18;;;8.27;;
11988;SDS011;6054;50.966;7.094;2022-08-19T12:59:40;9.30;;;8.35;;
11988;SDS011;6054;50.966;7.094;2022-08-19T13:02:07;7.68;;;6.85;;
11988;SDS011;6054;50.966;7.094;2022-08-19T13:04:35;10.68;;;9.77;;
11988;SDS011;6054;50.966;7.094;2022-08-19T13:07:09;10.48;;;9.10;;
11988;SDS011;6054;50.966;7.094;2022-08-19T13:09:36;10.30;;;9.25;;
11988;SDS011;6054;50.966;7.094;2022-08-19T13:12:05;8.50;;;7.47;;
11988;SDS011;6054;50.966;7.094;2022-08-19T13:14:37;8.88;;;8.07;;
11988;SDS011;6054;50.966;7.094;2022-08-19T13:17:05;9.20;;;8.27;;
11988;SDS011;6054;50.966;7.094;2022-08-19T13:19:32;9.65;;;8.75;;
11988;SDS011;6054;50.966;7.094;2022-08-19T13:21:59;11.32;;;8.95;;
11988;SDS011;6054;50.966;7.094;2022-08-19T13:24:27;11.07;;;9.65;;
11988;SDS011;6054;50.966;7.094;2022-08-19T13:26:53;10.98;;;9.85;;
11988;SDS011;6054;50.966;7.094;2022-08-19T13:29:20;10.73;;;8.63;;
11988;SDS011;6054;50.966;7.094;2022-08-19T13:32:05;10.32;;;8.98;;
11988;SDS011;6054;50.966;7.094;2022-08-19T13:34:49;10.38;;;9.32;;
11988;SDS011;6054;50.966;7.094;2022-08-19T13:37:16;10.38;;;9.27;;
11988;SDS011;6054;50.966;7.094;2022-08-19T13:40:05;11.63;;;8.88;;
11988;SDS011;6054;50.966;7.094;2022-08-19T13:42:36;9.48;;;8.68;;
11988;SDS011;6054;50.966;7.094;2022-08-19T13:45:03;10.80;;;8.57;;
11988;SDS011;6054;50.966;7.094;2022-08-19T13:47:31;9.30;;;8.32;;
11988;SDS011;6054;50.966;7.094;2022-08-19T13:49:59;8.60;;;7.75;;
11988;SDS011;6054;50.966;7.094;2022-08-19T13:52:26;9.45;;;7.72;;
11988;SDS011;6054;50.966;7.094;2022-08-19T13:54:52;8.13;;;7.32;;
11988;SDS011;6054;50.966;7.094;2022-08-19T13:57:21;7.78;;;7.07;;
11988;SDS011;6054;50.966;7.094;2022-08-19T13:59:48;7.88;;;7.07;;
11988;SDS011;6054;50.966;7.094;2022-08-19T14:02:14;10.23;;;8.93;;
11988;SDS011;6054;50.966;7.094;2022-08-19T14:04:41;9.93;;;8.95;;
11988;SDS011;6054;50.966;7.094;2022-08-19T14:07:08;8.55;;;7.30;;
11988;SDS011;6054;50.966;7.094;2022-08-19T14:09:35;10.05;;;6.78;;
11988;SDS011;6054;50.966;7.094;2022-08-19T14:12:02;7.47;;;6.72;;
11988;SDS011;6054;50.966;7.094;2022-08-19T14:14:31;7.20;;;6.47;;
11988;SDS011;6054;50.966;7.094;2022-08-19T14:16:57;8.98;;;6.90;;
11988;SDS011;6054;50.966;7.094;2022-08-19T14:19:24;7.65;;;6.63;;
11988;SDS011;6054;50.966;7.094;2022-08-19T14:21:51;9.75;;;6.50;;
11988;SDS011;6054;50.966;7.094;2022-08-19T14:24:18;9.05;;;6.05;;
11988;SDS011;6054;50.966;7.094;2022-08-19T14:26:45;6.57;;;5.97;;
11988;SDS011;6054;50.966;7.094;2022-08-19T14:29:11;6.53;;;5.90;;
11988;SDS011;6054;50.966;7.094;2022-08-19T14:31:40;6.28;;;5.60;;
11988;SDS011;6054;50.966;7.094;2022-08-19T14:34:08;7.20;;;6.03;;
11988;SDS011;6054;50.966;7.094;2022-08-19T14:36:36;6.55;;;5.38;;
11988;SDS011;6054;50.966;7.094;2022-08-19T14:39:03;8.25;;;5.30;;
11988;SDS011;6054;50.966;7.094;2022-08-19T14:41:30;9.43;;;5.38;;
11988;SDS011;6054;50.966;7.094;2022-08-19T14:43:57;7.75;;;6.05;;
11988;SDS011;6054;50.966;7.094;2022-08-19T14:46:26;6.72;;;6.13;;
11988;SDS011;6054;50.966;7.094;2022-08-19T14:48:55;6.20;;;5.60;;
11988;SDS011;6054;50.966;7.094;2022-08-19T14:51:23;6.40;;;5.80;;
11988;SDS011;6054;50.966;7.094;2022-08-19T14:53:51;7.68;;;6.70;;
11988;SDS011;6054;50.966;7.094;2022-08-19T14:56:19;6.75;;;5.53;;
11988;SDS011;6054;50.966;7.094;2022-08-19T14:58:49;6.60;;;5.88;;
11988;SDS011;6054;50.966;7.094;2022-08-19T15:01:16;7.43;;;5.68;;
11988;SDS011;6054;50.966;7.094;2022-08-19T15:03:44;7.25;;;6.10;;
11988;SDS011;6054;50.966;7.094;2022-08-19T15:06:13;7.57;;;5.03;;
11988;SDS011;6054;50.966;7.094;2022-08-19T15:08:41;6.78;;;5.50;;
11988;SDS011;6054;50.966;7.094;2022-08-19T15:11:10;9.02;;;4.97;;
11988;SDS011;6054;50.966;7.094;2022-08-19T15:13:39;4.68;;;4.25;;
11988;SDS011;6054;50.966;7.094;2022-08-19T15:16:07;8.10;;;4.38;;
11988;SDS011;6054;50.966;7.094;2022-08-19T15:18:34;5.47;;;4.57;;
11988;SDS011;6054;50.966;7.094;2022-08-19T15:21:03;6.68;;;4.15;;
11988;SDS011;6054;50.966;7.094;2022-08-19T15:23:31;6.60;;;4.28;;
11988;SDS011;6054;50.966;7.094;2022-08-19T15:26:00;8.13;;;4.32;;
11988;SDS011;6054;50.966;7.094;2022-08-19T15:28:27;8.40;;;4.25;;
11988;SDS011;6054;50.966;7.094;2022-08-19T15:30:55;6.22;;;3.92;;
11988;SDS011;6054;50.966;7.094;2022-08-19T15:33:21;6.22;;;3.90;;
11988;SDS011;6054;50.966;7.094;2022-08-19T15:35:48;5.65;;;3.65;;
11988;SDS011;6054;50.966;7.094;2022-08-19T15:38:16;7.20;;;3.50;;
11988;SDS011;6054;50.966;7.094;2022-08-19T15:40:47;9.15;;;4.13;;
11988;SDS011;6054;50.966;7.094;2022-08-19T15:43:16;7.20;;;3.83;;
11988;SDS011;6054;50.966;7.094;2022-08-19T15:45:44;8.55;;;3.70;;
11988;SDS011;6054;50.966;7.094;2022-08-19T15:48:11;4.18;;;3.28;;
11988;SDS011;6054;50.966;7.094;2022-08-19T15:50:38;9.50;;;3.90;;
11988;SDS011;6054;50.966;7.094;2022-08-19T15:53:07;5.65;;;3.58;;
11988;SDS011;6054;50.966;7.094;2022-08-19T15:55:36;6.22;;;3.38;;
11988;SDS011;6054;50.966;7.094;2022-08-19T15:58:10;4.95;;;3.33;;
11988;SDS011;6054;50.966;7.094;2022-08-19T16:00:56;3.25;;;2.95;;
11988;SDS011;6054;50.966;7.094;2022-08-19T16:03:41;3.75;;;3.17;;
11988;SDS011;6054;50.966;7.094;2022-08-19T16:06:25;6.70;;;3.47;;
11988;SDS011;6054;50.966;7.094;2022-08-19T16:08:56;4.60;;;3.47;;
11988;SDS011;6054;50.966;7.094;2022-08-19T16:11:27;3.88;;;2.95;;
11988;SDS011;6054;50.966;7.094;2022-08-19T16:13:57;5.20;;;3.05;;
11988;SDS011;6054;50.966;7.094;2022-08-19T16:16:26;3.55;;;2.80;;
11988;SDS011;6054;50.966;7.094;2022-08-19T16:18:54;3.70;;;3.00;;
11988;SDS011;6054;50.966;7.094;2022-08-19T16:21:22;3.97;;;3.10;;
11988;SDS011;6054;50.966;7.094;2022-08-19T16:23:51;3.28;;;3.00;;
11988;SDS011;6054;50.966;7.094;2022-08-19T16:26:18;7.15;;;3.13;;
11988;SDS011;6054;50.966;7.094;2022-08-19T16:28:45;6.30;;;3.20;;
11988;SDS011;6054;50.966;7.094;2022-08-19T16:31:14;7.07;;;3.00;;
11988;SDS011;6054;50.966;7.094;2022-08-19T16:33:41;5.00;;;2.72;;
11988;SDS011;6054;50.966;7.094;2022-08-19T16:36:08;6.20;;;3.42;;
11988;SDS011;6054;50.966;7.094;2022-08-19T16:38:35;4.55;;;3.42;;
11988;SDS011;6054;50.966;7.094;2022-08-19T16:41:02;6.07;;;3.40;;
11988;SDS011;6054;50.966;7.094;2022-08-19T16:43:29;3.70;;;2.90;;
11988;SDS011;6054;50.966;7.094;2022-08-19T16:45:57;4.95;;;2.78;;
11988;SDS011;6054;50.966;7.094;2022-08-19T16:48:27;6.30;;;2.60;;
11988;SDS011;6054;50.966;7.094;2022-08-19T16:50:56;3.10;;;2.78;;
11988;SDS011;6054;50.966;7.094;2022-08-19T16:53:24;5.53;;;2.63;;
11988;SDS011;6054;50.966;7.094;2022-08-19T16:55:53;8.18;;;3.03;;
11988;SDS011;6054;50.966;7.094;2022-08-19T16:58:21;5.05;;;2.80;;
11988;SDS011;6054;50.966;7.094;2022-08-19T17:00:49;7.88;;;3.42;;
11988;SDS011;6054;50.966;7.094;2022-08-19T17:03:16;4.53;;;2.78;;
11988;SDS011;6054;50.966;7.094;2022-08-19T17:05:46;4.32;;;2.33;;
11988;SDS011;6054;50.966;7.094;2022-08-19T17:08:14;7.13;;;3.13;;
11988;SDS011;6054;50.966;7.094;2022-08-19T17:10:42;3.08;;;2.60;;
11988;SDS011;6054;50.966;7.094;2022-08-19T17:13:11;4.38;;;2.70;;
11988;SDS011;6054;50.966;7.094;2022-08-19T17:15:39;6.82;;;2.83;;
11988;SDS011;6054;50.966;7.094;2022-08-19T17:18:07;5.32;;;2.72;;
11988;SDS011;6054;50.966;7.094;2022-08-19T17:20:35;4.68;;;2.90;;
11988;SDS011;6054;50.966;7.094;2022-08-19T17:23:04;4.53;;;2.65;;
11988;SDS011;6054;50.966;7.094;2022-08-19T17:25:31;3.30;;;2.40;;
11988;SDS011;6054;50.966;7.094;2022-08-19T17:28:04;3.28;;;2.33;;
11988;SDS011;6054;50.966;7.094;2022-08-19T17:30:32;2.00;;;1.90;;
11988;SDS011;6054;50.966;7.094;2022-08-19T17:32:58;2.72;;;2.30;;
11988;SDS011;6054;50.966;7.094;2022-08-19T17:35:25;2.38;;;2.20;;
11988;SDS011;6054;50.966;7.094;2022-08-19T17:37:52;4.40;;;2.33;;
11988;SDS011;6054;50.966;7.094;2022-08-19T17:40:20;2.22;;;1.83;;
11988;SDS011;6054;50.966;7.094;2022-08-19T17:42:48;1.92;;;1.83;;
11988;SDS011;6054;50.966;7.094;2022-08-19T17:45:16;5.30;;;2.17;;
11988;SDS011;6054;50.966;7.094;2022-08-19T17:47:44;2.05;;;1.95;;
11988;SDS011;6054;50.966;7.094;2022-08-19T17:50:11;2.30;;;2.15;;
11988;SDS011;6054;50.966;7.094;2022-08-19T17:52:38;3.00;;;2.30;;
11988;SDS011;6054;50.966;7.094;2022-08-19T17:55:06;3.67;;;2.40;;
11988;SDS011;6054;50.966;7.094;2022-08-19T17:57:35;2.92;;;2.25;;
11988;SDS011;6054;50.966;7.094;2022-08-19T18:00:04;3.05;;;2.40;;